Bangkok (Don Mueang), Thailand

3:31 PM ICT on August 22, 2014 (GMT +0700)
Khu Khot | Change Station
CLOSE
Current Station
Personal Weather Station
Location: Pathum Thani, PATHUM THANI
Elevation: 15 ft
Nearby Weather Stations

Elev 15 ft 13.96 °N, 100.65 °E | Updated 57 seconds ago

Light Rain
Light Rain
79.0 °F
Feels Like 83 °F
N
0.0
Wind Variable Wind from North
Gusts 0.0 mph

Today
High -- | Low -- °F
--% Chance of Precip.
Yesterday
High -- | Low -- °F
Precip. -- in
6:05 AM 6:35 PM
Waning Crescent, 9% visible
Pressure 29.80 in
Visibility 5.6 miles
Clouds Scattered Clouds 3500 ft
Mostly Cloudy 11000 ft
Heat Index 83 °F
Dew Point 77 °F
Humidity 95%
Rainfall 2.50 in
Snow Depth Not available.
UV 6 out of 12
Pollen Not available.
Air Quality Not available.
Flu Activity Not available.
METAR VTBD 220800Z 36007KT 330V030 9000 -RA FEW18CB SCT035 BKN110 26/24 Q1009 RETS NOSIG

More Conditions Fewer Conditions

Pressure 29.80 in
Visibility 5.6 miles
Clouds Scattered Clouds 3500 ft
Mostly Cloudy 11000 ft
Heat Index 83 °F
Dew Point 77 °F
Humidity 95%
Rainfall 2.50 in
Snow Depth Not available.
UV 6 out of 12
Pollen Not available.
Air Quality Not available.
Flu Activity Not available.
METAR VTBD 220800Z 36007KT 330V030 9000 -RA FEW18CB SCT035 BKN110 26/24 Q1009 RETS NOSIG

More Conditions Fewer Conditions

10-Day Weather Forecast

Almanac

Astronomy

Aug. 22, 2014 Rise Set
Actual Time 6:05 AM ICT 6:35 PM ICT
Civil Twilight 5:43 AM ICT 6:57 PM ICT
Nautical Twilight 5:17 AM ICT 7:23 PM ICT
Astronomical Twilight 4:51 AM ICT 7:48 PM ICT
Moon 3:14 AM ICT 4:11 PM ICT
Length of Visible Light 13h 14m
Length of Day
12h 30m
Tomorrow will be 0m 42s shorter.
Waning Crescent, 9% of the Moon is Illuminated
Today
Waning Crescent
Aug 25
New
Sep 2
First Quarter
Sep 8
Full
Sep 15
Last Quarter

Yesterday's Extremes

Country Highs Country Lows

Community

WunderPhotos

Upload Photos

1,746,144 photos uploaded!

Nearby

Snow Depth

Not available.

Earthquake Activity

City Distance Mag. Time & Date
No recent earthquake activity has been reported nearby.
Minimum magnitude displayed is 2.5.

Coastal Water Temperatures

Place Temperature
No Stations Reporting

Nearby Weather Stations